Time;durP1;ratioP1;P1;durP2;ratioP2;P2;SDS_P1;SDS_P2;PMS_P1;PMS_P2;Temp;Humidity;BMP_temperature;BMP_pressure;BME280_temperature;BME280_humidity;BME280_pressure;Samples;Min_cycle;Max_cycle;Signal;HPM_P1;HPM_P2
2021/03/15 08:40:50;;;;;;;2.27;1.10;;;10.20;99.90;;;;;;4358077;23;21130;-66
2021/03/15 08:43:45;;;;;;;2.30;1.20;;;10.10;99.90;;;;;;4914803;29;20214;-68
2021/03/15 08:46:16;;;;;;;2.50;1.00;;;9.90;99.90;;;;;;4912895;29;20240;-66
2021/03/15 08:48:54;;;;;;;2.93;0.87;;;9.70;99.90;;;;;;4917631;29;20214;-67
2021/03/15 08:51:46;;;;;;;1.77;1.10;;;9.40;99.90;;;;;;4917135;29;20214;-68
2021/03/15 08:54:16;;;;;;;6.33;1.50;;;9.10;99.90;;;;;;4917404;29;20678;-68
2021/03/15 08:56:45;;;;;;;2.13;1.10;;;9.10;99.90;;;;;;4917816;29;20727;-67
2021/03/15 08:59:13;;;;;;;5.50;0.93;;;9.20;99.90;;;;;;4917087;29;20210;-67
2021/03/15 09:01:57;;;;;;;3.00;0.93;;;9.10;99.90;;;;;;4917853;29;20216;-66
2021/03/15 09:04:42;;;;;;;3.47;1.00;;;9.20;99.90;;;;;;4916738;29;20217;-65
2021/03/15 09:07:43;;;;;;;5.10;1.30;;;9.60;99.90;;;;;;4916882;29;20633;-66
2021/03/15 09:10:46;;;;;;;8.90;1.07;;;10.40;99.90;;;;;;4896840;29;20217;-68
2021/03/15 09:13:31;;;;;;;2.93;0.80;;;10.70;99.90;;;;;;4916554;29;20209;-67
2021/03/15 09:16:01;;;;;;;1.87;0.90;;;10.90;99.90;;;;;;4917060;29;20248;-68
2021/03/15 09:18:51;;;;;;;0.90;0.67;;;11.30;99.90;;;;;;4917379;29;20214;-68
2021/03/15 09:21:46;;;;;;;3.33;0.70;;;11.10;99.90;;;;;;4917023;29;20213;-67
2021/03/15 09:24:39;;;;;;;4.00;1.80;;;11.40;99.90;;;;;;4917271;29;20365;-67
2021/03/15 09:27:07;;;;;;;1.40;0.70;;;11.40;99.90;;;;;;4916499;29;20574;-68
2021/03/15 09:29:34;;;;;;;6.13;1.00;;;11.20;99.90;;;;;;4917355;29;20625;-68
2021/03/15 09:32:03;;;;;;;3.77;0.60;;;10.80;99.90;;;;;;4917078;29;20248;-69
2021/03/15 09:34:30;;;;;;;5.00;0.67;;;10.60;99.90;;;;;;4916801;29;20214;-69
2021/03/15 09:36:58;;;;;;;0.83;0.50;;;10.70;99.90;;;;;;4917250;29;20604;-72
2021/03/15 09:39:25;;;;;;;1.63;0.63;;;10.70;99.90;;;;;;4917108;29;20224;-68
2021/03/15 09:41:52;;;;;;;5.07;1.10;;;10.60;99.90;;;;;;4913196;29;20218;-70
2021/03/15 09:44:23;;;;;;;1.73;0.60;;;10.90;99.90;;;;;;4916679;29;20243;-70
2021/03/15 09:46:51;;;;;;;2.63;0.70;;;10.90;99.90;;;;;;4917139;29;20239;-71
2021/03/15 09:49:37;;;;;;;4.20;0.57;;;10.90;99.90;;;;;;4916269;29;20209;-68
2021/03/15 09:52:14;;;;;;;5.63;0.60;;;11.10;99.90;;;;;;4916451;29;20211;-69
2021/03/15 09:54:41;;;;;;;3.90;0.63;;;11.10;99.90;;;;;;4916312;29;20210;-68
2021/03/15 09:57:08;;;;;;;2.17;0.40;;;11.00;99.90;;;;;;4916024;29;20324;-67
2021/03/15 09:59:34;;;;;;;2.67;0.70;;;10.60;99.90;;;;;;4916141;29;20234;-66
2021/03/15 10:02:00;;;;;;;3.27;0.80;;;10.10;99.90;;;;;;4916366;29;20210;-67
2021/03/15 10:04:33;;;;;;;2.10;0.40;;;9.90;99.90;;;;;;4916148;29;20280;-67
2021/03/15 10:07:01;;;;;;;1.30;0.57;;;9.80;99.90;;;;;;4916570;29;20229;-67
2021/03/15 10:09:27;;;;;;;1.30;0.60;;;9.70;99.90;;;;;;4916698;29;20296;-66
2021/03/15 10:11:54;;;;;;;6.40;2.00;;;9.90;99.90;;;;;;4915505;29;20221;-66
2021/03/15 10:14:23;;;;;;;3.07;0.70;;;10.20;99.90;;;;;;4916388;29;20241;-67
2021/03/15 10:16:57;;;;;;;3.17;0.70;;;10.20;99.90;;;;;;4916222;29;20343;-65
2021/03/15 10:19:27;;;;;;;1.40;0.40;;;10.30;99.90;;;;;;4915728;29;20216;-70
2021/03/15 10:21:53;;;;;;;1.73;0.50;;;10.30;99.90;;;;;;4912621;29;20687;-69
2021/03/15 10:24:34;;;;;;;2.33;0.77;;;10.30;99.90;;;;;;4916685;29;20610;-72
2021/03/15 10:27:01;;;;;;;2.37;0.60;;;10.10;99.90;;;;;;4915238;29;20236;-66
2021/03/15 10:29:27;;;;;;;2.37;0.53;;;9.90;99.90;;;;;;4915773;29;20210;-66
2021/03/15 10:31:54;;;;;;;3.63;0.70;;;10.00;99.90;;;;;;4915625;29;20264;-66
2021/03/15 10:34:24;;;;;;;1.63;0.57;;;10.20;99.90;;;;;;4912863;29;20257;-67
2021/03/15 10:36:51;;;;;;;4.10;0.43;;;10.30;99.90;;;;;;4914909;29;20241;-68
2021/03/15 10:39:20;;;;;;;2.80;0.63;;;10.40;99.90;;;;;;4916019;29;20229;-69
2021/03/15 10:41:48;;;;;;;3.93;0.63;;;10.40;99.90;;;;;;4914844;29;20217;-68
2021/03/15 10:44:18;;;;;;;2.70;0.37;;;10.50;99.90;;;;;;4915931;29;20209;-67
2021/03/15 10:46:50;;;;;;;2.27;0.70;;;10.60;99.90;;;;;;4915273;29;20248;-67
2021/03/15 10:49:22;;;;;;;1.50;0.47;;;10.50;99.90;;;;;;4915590;29;20237;-70
2021/03/15 10:51:51;;;;;;;2.57;0.53;;;10.30;99.90;;;;;;4914921;29;20580;-68
2021/03/15 10:54:28;;;;;;;4.23;0.43;;;10.10;99.90;;;;;;4915374;29;20213;-72
2021/03/15 10:57:20;;;;;;;1.77;0.70;;;10.20;99.90;;;;;;4914452;29;20608;-70
2021/03/15 10:59:47;;;;;;;5.27;0.60;;;10.30;99.90;;;;;;4886743;29;20262;-73
2021/03/15 11:02:22;;;;;;;1.13;0.50;;;10.20;99.90;;;;;;4901608;29;20213;-68
2021/03/15 11:04:56;;;;;;;2.70;0.40;;;10.30;99.90;;;;;;4916665;29;20239;-68
2021/03/15 11:07:27;;;;;;;6.40;0.90;;;10.10;99.90;;;;;;4916167;29;20758;-68
2021/03/15 11:10:06;;;;;;;3.43;0.50;;;10.00;99.90;;;;;;4916749;29;20213;-68
2021/03/15 11:12:38;;;;;;;5.83;0.80;;;10.00;99.90;;;;;;4916367;29;20206;-68
2021/03/15 11:15:13;;;;;;;5.30;0.47;;;10.10;99.90;;;;;;4916166;29;20707;-69
2021/03/15 11:17:42;;;;;;;3.83;0.43;;;10.10;99.90;;;;;;4923975;29;20228;-68
2021/03/15 11:20:10;;;;;;;5.60;0.80;;;9.90;99.90;;;;;;4913066;29;20889;-68
2021/03/15 11:22:50;;;;;;;0.80;0.50;;;9.90;99.90;;;;;;4915137;29;20297;-69
2021/03/15 11:25:18;;;;;;;1.43;0.30;;;10.10;99.90;;;;;;4914763;29;20209;-69
2021/03/15 11:27:49;;;;;;;2.17;0.43;;;10.10;99.90;;;;;;4914911;29;20241;-68
2021/03/15 11:30:26;;;;;;;1.70;0.37;;;10.10;99.90;;;;;;4914862;29;20225;-74
2021/03/15 11:33:07;;;;;;;1.40;0.60;;;10.30;99.90;;;;;;4918277;29;20221;-70
2021/03/15 11:35:35;;;;;;;2.47;0.40;;;10.30;99.90;;;;;;4918338;29;20232;-67
2021/03/15 11:38:02;;;;;;;6.00;0.63;;;10.60;99.90;;;;;;4918746;29;20229;-68
2021/03/15 11:40:37;;;;;;;2.63;0.47;;;10.70;99.90;;;;;;4917711;29;20214;-69
2021/03/15 11:43:05;;;;;;;0.80;0.50;;;10.70;99.90;;;;;;4918035;29;20209;-68
2021/03/15 11:45:32;;;;;;;3.67;0.40;;;10.50;99.90;;;;;;4919418;29;20565;-68
2021/03/15 11:47:59;;;;;;;3.23;0.50;;;10.30;99.90;;;;;;4919154;29;20241;-68
2021/03/15 11:50:26;;;;;;;3.93;0.80;;;10.30;99.90;;;;;;4919475;29;20212;-68
2021/03/15 11:52:52;;;;;;;4.20;0.60;;;10.40;99.90;;;;;;4919227;29;20209;-68
2021/03/15 11:55:20;;;;;;;1.67;0.40;;;10.60;99.90;;;;;;4919049;29;20591;-68
2021/03/15 11:57:47;;;;;;;2.63;0.50;;;10.50;99.90;;;;;;4919506;29;20232;-68
2021/03/15 12:00:16;;;;;;;1.03;0.40;;;10.30;99.90;;;;;;4919338;29;20209;-68
2021/03/15 12:02:42;;;;;;;1.10;0.40;;;10.10;99.90;;;;;;4919734;29;20297;-68
2021/03/15 12:05:10;;;;;;;2.03;0.33;;;10.20;99.90;;;;;;4919323;29;20690;-68
2021/03/15 12:07:37;;;;;;;0.80;0.20;;;10.50;99.90;;;;;;4919088;29;20230;-68
2021/03/15 12:10:05;;;;;;;4.50;0.60;;;10.60;99.90;;;;;;4919551;29;20265;-68
2021/03/15 12:12:31;;;;;;;1.50;0.20;;;10.40;99.90;;;;;;4919623;29;20220;-68
2021/03/15 12:14:57;;;;;;;3.00;0.40;;;10.20;99.90;;;;;;4919473;29;20573;-68
2021/03/15 12:17:24;;;;;;;2.67;0.60;;;10.30;99.90;;;;;;4919209;29;20248;-68
2021/03/15 12:19:51;;;;;;;1.90;0.40;;;10.40;99.90;;;;;;4919545;29;20206;-68
2021/03/15 12:22:17;;;;;;;1.70;0.70;;;10.40;99.90;;;;;;4919172;29;20564;-68
2021/03/15 12:24:43;;;;;;;0.90;0.40;;;10.50;99.90;;;;;;4919478;29;20213;-68
2021/03/15 12:27:09;;;;;;;1.77;0.40;;;10.70;99.90;;;;;;4918868;29;20779;-68
2021/03/15 12:29:37;;;;;;;3.70;0.40;;;10.80;99.90;;;;;;4919012;29;20256;-68
2021/03/15 12:32:03;;;;;;;1.27;0.20;;;10.90;99.90;;;;;;4919181;29;20206;-68
2021/03/15 12:34:31;;;;;;;3.40;0.40;;;10.80;99.90;;;;;;4918953;29;20217;-68
2021/03/15 12:36:57;;;;;;;1.20;0.30;;;10.30;99.90;;;;;;4918652;29;20652;-68
2021/03/15 12:39:23;;;;;;;2.67;0.40;;;9.90;99.90;;;;;;4918577;29;20217;-68
2021/03/15 12:41:50;;;;;;;1.07;0.60;;;9.80;99.90;;;;;;4918318;29;20221;-68
2021/03/15 12:44:16;;;;;;;1.23;0.40;;;9.70;99.90;;;;;;4918719;29;20224;-68
2021/03/15 12:46:42;;;;;;;0.93;0.47;;;9.80;99.90;;;;;;4918717;29;20226;-68
2021/03/15 12:49:08;;;;;;;1.73;0.40;;;9.90;99.90;;;;;;4918627;29;20217;-68
2021/03/15 12:51:35;;;;;;;2.67;0.60;;;9.80;99.90;;;;;;4919258;29;20664;-68
2021/03/15 12:54:02;;;;;;;0.93;0.33;;;9.90;99.90;;;;;;4918799;29;20216;-68
2021/03/15 12:56:28;;;;;;;1.87;0.60;;;10.10;99.90;;;;;;4918932;29;20245;-68
2021/03/15 12:58:55;;;;;;;2.07;0.40;;;10.40;99.90;;;;;;4919075;29;20236;-68
2021/03/15 13:01:21;;;;;;;2.10;0.50;;;10.50;99.90;;;;;;4918909;29;20209;-69
2021/03/15 13:03:47;;;;;;;0.50;0.30;;;10.40;99.90;;;;;;4918693;29;20284;-68
2021/03/15 13:06:16;;;;;;;1.03;0.20;;;9.70;99.90;;;;;;4918461;29;20217;-68
2021/03/15 13:08:46;;;;;;;2.33;0.50;;;9.20;99.90;;;;;;4918865;29;20668;-68
2021/03/15 13:11:12;;;;;;;1.93;0.40;;;8.80;99.90;;;;;;4918750;29;20213;-68
2021/03/15 13:13:38;;;;;;;2.33;0.70;;;8.70;99.90;;;;;;4918531;29;20260;-68
2021/03/15 13:16:05;;;;;;;5.03;0.40;;;8.50;99.90;;;;;;4918417;29;20241;-68
2021/03/15 13:18:32;;;;;;;1.37;0.33;;;8.50;99.90;;;;;;4918359;29;20221;-68
2021/03/15 13:20:59;;;;;;;5.80;0.30;;;8.60;99.90;;;;;;4918690;29;20217;-68
2021/03/15 13:23:26;;;;;;;1.50;0.67;;;8.70;99.90;;;;;;4918348;29;20760;-69
2021/03/15 13:25:53;;;;;;;0.83;0.30;;;8.90;99.90;;;;;;4918417;29;20206;-69
2021/03/15 13:28:19;;;;;;;0.73;0.40;;;9.30;99.90;;;;;;4918189;29;20234;-68
2021/03/15 13:30:46;;;;;;;5.33;0.50;;;9.40;99.90;;;;;;4918158;29;20218;-67
2021/03/15 13:33:12;;;;;;;1.30;0.40;;;9.30;99.90;;;;;;4918259;29;20256;-66
2021/03/15 13:35:39;;;;;;;0.50;0.27;;;8.40;99.90;;;;;;4918313;29;20234;-67
2021/03/15 13:38:06;;;;;;;2.40;0.80;;;7.70;99.90;;;;;;4918266;29;20254;-67
2021/03/15 13:40:32;;;;;;;2.03;0.30;;;7.30;99.90;;;;;;4918059;29;20589;-67
2021/03/15 13:42:59;;;;;;;2.40;0.60;;;7.10;99.90;;;;;;4918162;29;20214;-68
2021/03/15 13:45:25;;;;;;;1.30;0.30;;;7.10;99.90;;;;;;4918173;29;20569;-67
2021/03/15 13:47:52;;;;;;;3.80;0.30;;;7.30;99.90;;;;;;4917674;29;20308;-67
2021/03/15 13:50:18;;;;;;;1.50;0.57;;;7.40;99.90;;;;;;4917944;29;20209;-67
2021/03/15 13:52:45;;;;;;;7.33;0.40;;;7.50;99.90;;;;;;4918027;29;20228;-66
2021/03/15 13:55:11;;;;;;;0.90;0.27;;;7.70;99.90;;;;;;4917521;29;20205;-68
2021/03/15 13:57:38;;;;;;;0.77;0.33;;;7.80;99.90;;;;;;4917557;29;20246;-68
2021/03/15 14:00:07;;;;;;;3.87;0.50;;;7.90;99.90;;;;;;4917729;29;20323;-67
2021/03/15 14:02:33;;;;;;;4.63;0.63;;;7.90;99.90;;;;;;4917943;29;20229;-67
2021/03/15 14:05:00;;;;;;;1.20;0.40;;;8.00;99.90;;;;;;4917799;29;20601;-68
2021/03/15 14:07:26;;;;;;;0.90;0.50;;;8.20;99.90;;;;;;4917745;29;20252;-68
2021/03/15 14:09:52;;;;;;;2.13;0.57;;;8.50;99.90;;;;;;4917736;29;20212;-68
2021/03/15 14:12:19;;;;;;;4.43;0.50;;;8.70;99.90;;;;;;4917659;29;20209;-68
2021/03/15 14:14:45;;;;;;;1.13;0.60;;;8.70;99.90;;;;;;4917618;29;20216;-68
2021/03/15 14:17:12;;;;;;;1.67;0.63;;;8.50;99.90;;;;;;4917648;29;20249;-67
2021/03/15 14:19:38;;;;;;;2.50;0.30;;;8.30;99.90;;;;;;4917152;29;20614;-67
2021/03/15 14:22:05;;;;;;;2.73;0.90;;;8.10;99.90;;;;;;4917458;29;20213;-67
2021/03/15 14:24:31;;;;;;;1.70;0.50;;;7.70;99.90;;;;;;4917321;29;20265;-67
2021/03/15 14:26:58;;;;;;;5.20;0.37;;;7.40;99.90;;;;;;4916879;29;20316;-68
2021/03/15 14:29:24;;;;;;;5.63;0.50;;;7.30;99.90;;;;;;4916982;29;20209;-67
2021/03/15 14:31:50;;;;;;;2.37;0.63;;;7.20;99.90;;;;;;4917402;29;20268;-67
2021/03/15 14:34:17;;;;;;;1.07;0.33;;;7.20;99.90;;;;;;4917119;29;20669;-67
2021/03/15 14:36:43;;;;;;;2.10;0.43;;;7.20;99.90;;;;;;4914025;29;20245;-68
2021/03/15 14:39:10;;;;;;;4.87;0.63;;;7.20;99.90;;;;;;4915849;29;20206;-64
2021/03/15 14:41:36;;;;;;;0.87;0.40;;;7.30;99.90;;;;;;4915449;29;20244;-65
2021/03/15 14:44:03;;;;;;;3.53;0.40;;;7.40;99.90;;;;;;4914832;29;20216;-66
2021/03/15 14:46:29;;;;;;;3.03;0.70;;;7.50;99.90;;;;;;4915489;29;20237;-70
2021/03/15 14:48:55;;;;;;;1.37;0.30;;;7.70;99.90;;;;;;4915641;29;20205;-70
2021/03/15 14:51:23;;;;;;;1.67;0.30;;;7.90;99.90;;;;;;4915294;29;20217;-69
2021/03/15 14:53:49;;;;;;;0.40;0.30;;;8.10;99.90;;;;;;4915617;29;20727;-68
2021/03/15 14:56:16;;;;;;;1.60;0.33;;;8.20;99.90;;;;;;4915332;29;20241;-69
2021/03/15 14:58:42;;;;;;;1.40;0.40;;;8.20;99.90;;;;;;4915330;29;20689;-68
2021/03/15 15:01:08;;;;;;;2.97;0.67;;;8.30;99.90;;;;;;4915604;29;20217;-70
2021/03/15 15:03:34;;;;;;;1.47;0.40;;;8.30;99.90;;;;;;4915489;29;20209;-68
2021/03/15 15:06:01;;;;;;;1.87;0.40;;;8.40;99.90;;;;;;4913703;29;20564;-69
2021/03/15 15:08:28;;;;;;;1.67;0.50;;;8.30;99.90;;;;;;4915493;29;20225;-73
2021/03/15 15:10:54;;;;;;;2.17;0.30;;;8.20;99.90;;;;;;4915489;29;20685;-70
2021/03/15 15:13:20;;;;;;;5.70;1.00;;;8.10;99.90;;;;;;4912085;29;20265;-71
2021/03/15 15:15:46;;;;;;;0.93;0.50;;;8.00;99.90;;;;;;4915988;29;20296;-70
2021/03/15 15:18:12;;;;;;;2.90;0.40;;;7.80;99.90;;;;;;4915408;29;20237;-70
2021/03/15 15:20:39;;;;;;;4.20;0.60;;;7.80;99.90;;;;;;4916087;29;20206;-69
2021/03/15 15:23:06;;;;;;;2.03;0.43;;;7.60;99.90;;;;;;4916635;29;20210;-68
2021/03/15 15:25:33;;;;;;;3.33;0.40;;;7.50;99.90;;;;;;4916680;29;20229;-68
2021/03/15 15:28:00;;;;;;;3.37;0.40;;;7.40;99.90;;;;;;4916552;29;20285;-66
2021/03/15 15:30:27;;;;;;;4.13;0.50;;;7.40;99.90;;;;;;4916686;29;20213;-67
2021/03/15 15:32:53;;;;;;;4.27;0.67;;;7.30;99.90;;;;;;4916593;29;20210;-67
2021/03/15 15:35:20;;;;;;;2.10;0.30;;;7.30;99.90;;;;;;4916740;29;20264;-67
2021/03/15 15:37:48;;;;;;;0.53;0.20;;;7.40;99.90;;;;;;4916528;29;20658;-68
2021/03/15 15:40:15;;;;;;;2.00;0.50;;;7.40;99.90;;;;;;4914746;29;20743;-67
2021/03/15 15:42:42;;;;;;;3.03;0.50;;;7.60;99.90;;;;;;4916521;29;20217;-67
2021/03/15 15:45:10;;;;;;;1.47;0.50;;;7.70;99.90;;;;;;4916330;29;20261;-68
2021/03/15 15:47:36;;;;;;;0.43;0.30;;;7.70;99.90;;;;;;4916266;29;20236;-68
2021/03/15 15:50:03;;;;;;;3.47;0.30;;;7.80;99.90;;;;;;4916225;29;20210;-67
2021/03/15 15:52:30;;;;;;;4.17;0.53;;;7.80;99.90;;;;;;4916133;29;20221;-67
2021/03/15 15:54:56;;;;;;;0.43;0.20;;;7.90;99.90;;;;;;4915950;29;20213;-66
2021/03/15 15:57:22;;;;;;;1.60;0.40;;;7.80;99.90;;;;;;4915912;29;20559;-66
2021/03/15 15:59:49;;;;;;;3.77;0.60;;;7.70;99.90;;;;;;4916152;29;20202;-66
2021/03/15 16:02:15;;;;;;;1.33;0.40;;;7.70;99.90;;;;;;4916047;29;20238;-67
2021/03/15 16:04:42;;;;;;;4.40;0.70;;;7.80;99.90;;;;;;4916191;29;20210;-67
2021/03/15 16:07:08;;;;;;;3.53;0.50;;;7.90;99.90;;;;;;4915744;29;20566;-67
2021/03/15 16:09:34;;;;;;;1.97;0.30;;;7.90;99.90;;;;;;4915535;29;20210;-67
2021/03/15 16:12:00;;;;;;;4.20;0.57;;;8.00;99.90;;;;;;4915906;29;20214;-67
2021/03/15 16:14:27;;;;;;;0.67;0.30;;;8.10;99.90;;;;;;4916349;29;20564;-65
2021/03/15 16:16:54;;;;;;;0.57;0.30;;;8.10;99.90;;;;;;4916615;29;20245;-66
2021/03/15 16:19:20;;;;;;;2.70;0.67;;;8.00;99.90;;;;;;4919224;29;20209;-65
2021/03/15 16:21:46;;;;;;;1.03;0.30;;;8.10;99.90;;;;;;4919083;29;20554;-67
2021/03/15 16:24:13;;;;;;;2.87;0.30;;;8.10;99.90;;;;;;4919465;29;20220;-67
2021/03/15 16:26:39;;;;;;;2.03;0.40;;;8.10;99.90;;;;;;4919347;29;20300;-66
2021/03/15 16:29:05;;;;;;;2.03;0.40;;;8.00;99.90;;;;;;4919177;29;20214;-67
2021/03/15 16:31:31;;;;;;;7.13;2.67;;;8.00;99.90;;;;;;4919118;29;20217;-66
2021/03/15 16:33:58;;;;;;;2.60;0.73;;;7.90;99.90;;;;;;4918769;29;20217;-67
2021/03/15 16:36:25;;;;;;;1.60;0.50;;;7.90;99.90;;;;;;4918985;29;20237;-66
2021/03/15 16:38:53;;;;;;;1.33;0.67;;;7.80;99.90;;;;;;4919008;29;20228;-65
2021/03/15 16:41:20;;;;;;;9.73;3.30;;;7.70;99.90;;;;;;4918719;29;20681;-64
2021/03/15 16:43:46;;;;;;;3.13;0.57;;;7.60;99.90;;;;;;4918881;29;21024;-65
2021/03/15 16:46:12;;;;;;;2.37;0.60;;;7.50;99.90;;;;;;4918950;29;20565;-65
2021/03/15 16:48:39;;;;;;;3.60;0.60;;;7.50;99.90;;;;;;4918722;29;20206;-67
2021/03/15 16:51:06;;;;;;;3.47;1.13;;;7.50;99.90;;;;;;4918591;29;20206;-66
2021/03/15 16:53:33;;;;;;;3.97;0.83;;;7.50;99.90;;;;;;4918916;29;20214;-66
2021/03/15 16:55:59;;;;;;;4.03;0.70;;;7.50;99.90;;;;;;4918859;29;20244;-66
2021/03/15 16:58:25;;;;;;;4.20;0.40;;;7.60;99.90;;;;;;4918867;29;20237;-65
2021/03/15 17:00:51;;;;;;;1.33;0.80;;;7.60;99.90;;;;;;4918630;29;20210;-67
2021/03/15 17:03:18;;;;;;;2.10;0.40;;;7.70;99.90;;;;;;4918577;29;20206;-66
2021/03/15 17:05:44;;;;;;;1.20;0.40;;;7.80;99.90;;;;;;4918359;29;20262;-65
2021/03/15 17:08:11;;;;;;;3.10;0.50;;;7.80;99.90;;;;;;4918473;29;20233;-66
2021/03/15 17:10:37;;;;;;;4.07;0.57;;;7.90;99.90;;;;;;4918337;29;20221;-65
2021/03/15 17:13:04;;;;;;;2.00;0.40;;;8.00;99.90;;;;;;4918519;29;20209;-66
2021/03/15 17:15:30;;;;;;;6.33;0.70;;;7.90;99.90;;;;;;4918402;29;20221;-66
2021/03/15 17:17:57;;;;;;;4.13;0.47;;;8.10;99.90;;;;;;4918148;29;20641;-65
2021/03/15 17:20:24;;;;;;;0.90;0.33;;;8.10;99.90;;;;;;4918169;29;20212;-65
2021/03/15 17:22:51;;;;;;;4.53;0.43;;;8.10;99.90;;;;;;4918455;29;20225;-65
2021/03/15 17:25:18;;;;;;;3.13;0.60;;;8.00;99.90;;;;;;4918382;29;20273;-66
2021/03/15 17:27:45;;;;;;;5.37;0.70;;;7.90;99.90;;;;;;4918321;29;20261;-67
2021/03/15 17:30:14;;;;;;;2.90;0.40;;;7.80;99.90;;;;;;4917069;29;20241;-67
2021/03/15 17:32:40;;;;;;;3.20;0.50;;;7.60;99.90;;;;;;4899202;29;20214;-68
2021/03/15 17:35:09;;;;;;;1.30;0.43;;;7.40;99.90;;;;;;4910611;29;20201;-66
2021/03/15 17:37:35;;;;;;;1.73;0.40;;;7.40;99.90;;;;;;4917820;29;20747;-67
2021/03/15 17:40:02;;;;;;;3.23;1.17;;;7.40;99.90;;;;;;4917902;29;20217;-66
2021/03/15 17:42:29;;;;;;;6.03;1.00;;;7.40;99.90;;;;;;4917884;29;20217;-71
2021/03/15 17:44:56;;;;;;;3.23;0.80;;;7.40;99.90;;;;;;4918001;29;20213;-66
2021/03/15 17:47:22;;;;;;;2.40;0.80;;;7.40;99.90;;;;;;4918090;29;20237;-65
2021/03/15 17:49:48;;;;;;;3.60;0.30;;;7.50;99.90;;;;;;4918022;29;20280;-68
2021/03/15 17:52:15;;;;;;;1.97;1.13;;;7.50;99.90;;;;;;4917788;29;20621;-66
2021/03/15 17:54:42;;;;;;;2.10;0.80;;;7.50;99.90;;;;;;4917913;29;20277;-68
2021/03/15 17:57:09;;;;;;;4.47;0.80;;;7.50;99.90;;;;;;4917185;29;20708;-67
2021/03/15 17:59:36;;;;;;;1.47;0.70;;;7.30;99.90;;;;;;4917140;29;20206;-67
2021/03/15 18:02:02;;;;;;;4.60;0.83;;;7.30;99.90;;;;;;4917677;29;20663;-69
2021/03/15 18:04:29;;;;;;;3.47;0.70;;;7.30;99.90;;;;;;4917432;29;20209;-68
2021/03/15 18:06:55;;;;;;;4.73;0.70;;;7.20;99.90;;;;;;4917467;29;20236;-69
2021/03/15 18:09:21;;;;;;;2.60;0.50;;;7.20;99.90;;;;;;4917559;29;20217;-67
2021/03/15 18:11:48;;;;;;;5.93;0.73;;;7.30;99.90;;;;;;4917475;29;20213;-68
2021/03/15 18:14:14;;;;;;;5.10;1.03;;;7.30;99.90;;;;;;4917397;29;20257;-68
2021/03/15 18:16:41;;;;;;;5.13;0.83;;;7.30;99.90;;;;;;4917367;29;20241;-67
2021/03/15 18:19:08;;;;;;;4.20;1.63;;;7.20;99.90;;;;;;4917284;29;20218;-69
2021/03/15 18:21:35;;;;;;;2.43;0.80;;;7.20;99.90;;;;;;4912929;29;20744;-69
2021/03/15 18:24:01;;;;;;;4.97;1.20;;;7.30;99.90;;;;;;4916186;29;20213;-67
2021/03/15 18:26:28;;;;;;;2.33;0.73;;;7.40;99.90;;;;;;4917232;29;20237;-67
2021/03/15 18:28:54;;;;;;;4.13;1.00;;;7.50;99.90;;;;;;4917186;29;20668;-67
2021/03/15 18:31:21;;;;;;;4.57;1.00;;;7.50;99.90;;;;;;4917364;29;20221;-67
2021/03/15 18:33:48;;;;;;;8.10;2.10;;;7.50;99.90;;;;;;4917139;29;20220;-67
2021/03/15 18:36:14;;;;;;;3.17;0.97;;;7.50;99.90;;;;;;4917106;29;20244;-67
2021/03/15 18:38:41;;;;;;;8.77;3.70;;;7.40;99.90;;;;;;4917231;29;20221;-67
2021/03/15 18:41:07;;;;;;;3.53;1.27;;;7.50;99.90;;;;;;4916622;29;20589;-66
2021/03/15 18:43:33;;;;;;;7.97;3.33;;;7.50;99.90;;;;;;4916934;29;20213;-67
2021/03/15 18:46:00;;;;;;;10.83;1.80;;;7.50;99.90;;;;;;4917329;29;20213;-65
2021/03/15 18:48:27;;;;;;;5.47;0.70;;;7.40;99.90;;;;;;4917173;29;20233;-67
2021/03/15 18:50:54;;;;;;;19.87;5.40;;;7.40;99.90;;;;;;4916860;29;20206;-66
2021/03/15 18:53:20;;;;;;;7.70;1.47;;;7.40;99.90;;;;;;4916957;29;20209;-67
2021/03/15 18:55:46;;;;;;;7.87;1.30;;;7.30;99.90;;;;;;4916806;29;20288;-67
2021/03/15 18:58:12;;;;;;;31.10;7.67;;;7.30;99.90;;;;;;4916770;29;20229;-67
2021/03/15 19:00:39;;;;;;;13.23;5.13;;;7.40;99.90;;;;;;4916866;29;20569;-67
2021/03/15 19:03:05;;;;;;;10.27;2.30;;;7.30;99.90;;;;;;4916945;29;20209;-67
2021/03/15 19:05:31;;;;;;;7.00;1.40;;;7.30;99.90;;;;;;4916700;29;20209;-67
2021/03/15 19:07:58;;;;;;;10.20;2.37;;;7.30;99.90;;;;;;4916697;29;20233;-66
2021/03/15 19:10:25;;;;;;;8.37;2.23;;;7.20;99.90;;;;;;4916596;29;20213;-66
2021/03/15 19:12:51;;;;;;;4.40;0.67;;;7.30;99.90;;;;;;4915399;29;20224;-68
2021/03/15 19:15:18;;;;;;;2.63;0.73;;;7.30;99.90;;;;;;4916029;29;20220;-68
2021/03/15 19:17:44;;;;;;;1.03;0.60;;;7.30;99.90;;;;;;4915868;29;20255;-67
2021/03/15 19:20:11;;;;;;;3.67;1.63;;;7.20;99.90;;;;;;4916447;29;20213;-67
2021/03/15 19:22:37;;;;;;;6.63;0.90;;;7.10;99.90;;;;;;4916342;29;20213;-70
2021/03/15 19:25:05;;;;;;;3.87;0.70;;;7.10;99.90;;;;;;4915702;29;20236;-69
2021/03/15 19:27:32;;;;;;;1.90;1.10;;;7.20;99.90;;;;;;4915696;29;20237;-68
2021/03/15 19:29:59;;;;;;;2.67;0.60;;;7.20;99.90;;;;;;4915827;29;20209;-68
2021/03/15 19:32:25;;;;;;;12.33;3.70;;;7.30;99.90;;;;;;4916107;29;20292;-68
2021/03/15 19:34:51;;;;;;;6.93;2.43;;;7.30;99.90;;;;;;4915803;29;20756;-67
2021/03/15 19:37:17;;;;;;;9.10;1.60;;;7.30;99.90;;;;;;4915934;29;20241;-68
2021/03/15 19:39:44;;;;;;;9.10;3.20;;;7.20;99.90;;;;;;4915965;29;20209;-66
2021/03/15 19:42:13;;;;;;;4.97;1.87;;;7.20;99.90;;;;;;4917495;29;20661;-67
2021/03/15 19:44:39;;;;;;;12.50;4.27;;;7.10;99.90;;;;;;4916728;29;20213;-67
2021/03/15 19:47:05;;;;;;;3.43;1.30;;;7.00;99.90;;;;;;4916981;29;20245;-67
2021/03/15 19:49:31;;;;;;;9.80;3.03;;;7.00;99.90;;;;;;4918123;29;20217;-67
2021/03/15 19:51:58;;;;;;;10.43;1.80;;;7.10;99.90;;;;;;4917793;29;20218;-65
2021/03/15 19:54:24;;;;;;;7.13;1.20;;;7.10;99.90;;;;;;4920710;29;20209;-66
2021/03/15 19:56:50;;;;;;;8.57;1.73;;;7.20;99.90;;;;;;4919928;29;20252;-66
2021/03/15 19:59:18;;;;;;;2.90;0.80;;;7.20;99.90;;;;;;4920104;29;20265;-66
2021/03/15 20:01:45;;;;;;;7.30;1.57;;;7.30;99.90;;;;;;4920037;29;20221;-66
2021/03/15 20:04:11;;;;;;;6.10;2.50;;;7.40;99.90;;;;;;4920174;29;20213;-65
2021/03/15 20:06:38;;;;;;;4.23;1.10;;;7.40;99.90;;;;;;4919871;29;20241;-66
2021/03/15 20:09:05;;;;;;;7.07;1.10;;;7.50;99.90;;;;;;4919941;29;20209;-66
2021/03/15 20:11:31;;;;;;;6.87;0.87;;;7.50;99.90;;;;;;4920002;29;20572;-66
2021/03/15 20:13:57;;;;;;;5.07;0.90;;;7.50;99.90;;;;;;4920086;29;20210;-66
2021/03/15 20:16:24;;;;;;;4.57;1.70;;;7.50;99.90;;;;;;4919830;29;20237;-66
2021/03/15 20:18:51;;;;;;;5.80;1.00;;;7.50;99.90;;;;;;4919761;29;20214;-65
2021/03/15 20:21:19;;;;;;;4.17;1.33;;;7.40;99.90;;;;;;4919549;29;20707;-66
2021/03/15 20:23:45;;;;;;;5.90;1.33;;;7.40;99.90;;;;;;4919740;29;20217;-66
2021/03/15 20:26:11;;;;;;;2.90;0.60;;;7.40;99.90;;;;;;4919354;29;20677;-66
2021/03/15 20:28:37;;;;;;;3.50;1.07;;;7.40;99.90;;;;;;4919678;29;20609;-66
2021/03/15 20:31:04;;;;;;;5.27;1.60;;;7.40;99.90;;;;;;4919250;29;20209;-66
2021/03/15 20:33:31;;;;;;;4.47;1.33;;;7.50;99.90;;;;;;4919160;29;20213;-66
2021/03/15 20:35:58;;;;;;;7.40;1.17;;;7.50;99.90;;;;;;4919283;29;20568;-66
2021/03/15 20:38:25;;;;;;;2.30;0.90;;;7.40;99.90;;;;;;4918872;29;20294;-66
2021/03/15 20:40:53;;;;;;;4.73;0.50;;;7.40;99.90;;;;;;4919801;29;20224;-66
2021/03/15 20:43:20;;;;;;;2.43;0.60;;;7.40;99.90;;;;;;4919163;29;20217;-66
2021/03/15 20:45:47;;;;;;;10.53;3.87;;;7.40;99.90;;;;;;4919145;29;20217;-66
2021/03/15 20:48:14;;;;;;;4.57;1.30;;;7.30;99.90;;;;;;4918927;29;20588;-66
2021/03/15 20:50:41;;;;;;;9.63;3.10;;;7.30;99.90;;;;;;4918749;29;20228;-66
2021/03/15 20:53:08;;;;;;;2.47;1.03;;;7.40;99.90;;;;;;4919113;29;20209;-65
2021/03/15 20:55:35;;;;;;;4.93;0.77;;;7.40;99.90;;;;;;4918495;29;20542;-66
2021/03/15 20:58:01;;;;;;;2.70;1.00;;;7.30;99.90;;;;;;4918711;29;20241;-65
2021/03/15 21:00:29;;;;;;;3.23;0.80;;;7.30;99.90;;;;;;4919012;29;20214;-65
2021/03/15 21:02:56;;;;;;;3.57;0.40;;;7.30;99.90;;;;;;4918760;29;20212;-66
2021/03/15 21:05:23;;;;;;;1.33;0.63;;;7.30;99.90;;;;;;4919102;29;20224;-65
2021/03/15 21:07:51;;;;;;;3.63;0.47;;;7.30;99.90;;;;;;4906428;29;20282;-65
2021/03/15 21:10:19;;;;;;;7.20;0.70;;;7.30;99.90;;;;;;4912976;29;20559;-66
2021/03/15 21:12:46;;;;;;;3.50;1.00;;;7.30;99.90;;;;;;4911974;29;20210;-66
2021/03/15 21:15:14;;;;;;;1.70;0.50;;;7.20;99.90;;;;;;4908121;29;20538;-65
2021/03/15 21:17:40;;;;;;;4.40;0.80;;;7.20;99.90;;;;;;4905779;29;20613;-66
2021/03/15 21:20:11;;;;;;;10.60;1.43;;;7.20;99.90;;;;;;4905859;29;20322;-65
2021/03/15 21:22:37;;;;;;;4.53;0.63;;;7.20;99.90;;;;;;4909410;29;20213;-65
2021/03/15 21:25:06;;;;;;;6.17;1.00;;;7.30;99.90;;;;;;4913818;29;20209;-65
2021/03/15 21:27:33;;;;;;;3.27;0.73;;;7.40;99.90;;;;;;4912158;29;20313;-65
2021/03/15 21:29:59;;;;;;;6.43;0.73;;;7.40;99.90;;;;;;4911904;29;20599;-65
2021/03/15 21:32:25;;;;;;;1.53;0.53;;;7.50;99.90;;;;;;4903152;29;20243;-65
2021/03/15 21:34:52;;;;;;;5.60;1.70;;;7.50;99.90;;;;;;4911303;29;20222;-66
2021/03/15 21:37:18;;;;;;;2.40;0.50;;;7.40;99.90;;;;;;4912131;29;20241;-65